createdAt,value
2023-02-19T00:04:22.239Z,12.72
2023-02-19T00:09:41.359Z,12.72
2023-02-19T00:15:00.996Z,12.72
2023-02-19T00:20:20.685Z,12.72
2023-02-19T00:25:39.736Z,12.73
2023-02-19T00:30:59.153Z,12.72
2023-02-19T00:36:18.517Z,12.72
2023-02-19T00:42:52.648Z,12.72
2023-02-19T00:46:58.452Z,12.72
2023-02-19T00:52:16.248Z,12.72
2023-02-19T00:57:35.240Z,12.71
2023-02-19T01:02:53.527Z,12.71
2023-02-19T01:08:12.891Z,12.71
2023-02-19T01:13:32.345Z,12.72
2023-02-19T01:18:51.700Z,12.71
2023-02-19T01:29:29.767Z,12.72
2023-02-19T01:34:48.580Z,12.71
2023-02-19T01:40:07.770Z,12.72
2023-02-19T01:45:26.471Z,12.71
2023-02-19T01:50:46.299Z,12.72
2023-02-19T01:56:06.056Z,12.71
2023-02-19T02:01:25.000Z,12.71
2023-02-19T02:06:44.989Z,12.7
2023-02-19T02:12:04.666Z,12.71
2023-02-19T02:17:23.973Z,12.71
2023-02-19T02:22:43.448Z,12.7
2023-02-19T02:28:02.264Z,12.7
2023-02-19T02:33:21.633Z,12.71
2023-02-19T02:38:41.173Z,12.7
2023-02-19T02:44:00.885Z,12.7
2023-02-19T02:49:19.829Z,12.7
2023-02-19T02:54:39.122Z,12.7
2023-02-19T02:59:58.073Z,12.7
2023-02-19T03:10:36.579Z,12.7
2023-02-19T03:15:56.021Z,12.7
2023-02-19T03:21:14.918Z,12.7
2023-02-19T03:26:59.016Z,12.7
2023-02-19T03:32:18.663Z,12.7
2023-02-19T03:37:38.112Z,12.7
2023-02-19T03:42:57.663Z,12.7
2023-02-19T03:48:16.630Z,12.7
2023-02-19T03:53:35.596Z,12.7
2023-02-19T03:58:54.953Z,12.7
2023-02-19T04:04:14.336Z,12.7
2023-02-19T04:09:33.264Z,12.7
2023-02-19T04:14:52.339Z,12.7
2023-02-19T04:20:12.133Z,12.7
2023-02-19T04:25:32.124Z,12.69
2023-02-19T04:36:11.480Z,12.7
2023-02-19T04:41:30.862Z,12.7
2023-02-19T04:46:49.359Z,12.7
2023-02-19T04:52:08.559Z,12.69
2023-02-19T04:57:27.922Z,12.7
2023-02-19T05:02:46.684Z,12.69
2023-02-19T05:08:06.008Z,12.7
2023-02-19T05:13:25.528Z,12.7
2023-02-19T05:18:44.287Z,12.69
2023-02-19T05:24:03.846Z,12.69
2023-02-19T05:29:22.919Z,12.69
2023-02-19T05:34:41.878Z,12.69
2023-02-19T05:40:00.948Z,12.7
2023-02-19T05:45:20.563Z,12.69
2023-02-19T05:50:39.932Z,12.69
2023-02-19T06:01:17.446Z,12.69
2023-02-19T06:06:36.852Z,12.69
2023-02-19T06:12:04.070Z,12.69
2023-02-19T06:17:15.536Z,12.68
2023-02-19T06:27:53.717Z,12.68
2023-02-19T06:33:12.592Z,12.69
2023-02-19T06:43:51.862Z,12.68
2023-02-19T06:49:11.580Z,12.69
2023-02-19T06:54:30.857Z,12.69
2023-02-19T06:59:50.132Z,12.7
2023-02-19T07:05:09.401Z,12.71
2023-02-19T07:10:28.995Z,12.71
2023-02-19T07:15:47.487Z,12.71
2023-02-19T07:21:06.977Z,12.72
2023-02-19T07:26:26.099Z,12.75
2023-02-19T07:31:45.617Z,12.79
2023-02-19T07:37:05.164Z,12.87
2023-02-19T07:42:24.860Z,12.93
2023-02-19T07:47:44.360Z,12.99
2023-02-19T07:53:04.059Z,12.98
2023-02-19T07:58:23.360Z,13.01
2023-02-19T08:03:42.956Z,13.04
2023-02-19T08:09:02.510Z,13.06
2023-02-19T08:14:22.286Z,13.14
2023-02-19T08:19:41.311Z,13.14
2023-02-19T08:25:00.592Z,13.15
2023-02-19T08:30:20.211Z,13.19
2023-02-19T08:35:39.779Z,13.35
2023-02-19T08:40:59.387Z,13.48
2023-02-19T08:46:18.371Z,13.54
2023-02-19T08:51:38.062Z,13.5
2023-02-19T08:56:57.337Z,13.33
2023-02-19T09:07:36.230Z,13.34
2023-02-19T09:12:54.489Z,13.26
2023-02-19T09:18:13.524Z,13.23
2023-02-19T09:23:33.954Z,13.16
2023-02-19T09:28:52.426Z,13.13
2023-02-19T09:34:11.973Z,13.12
2023-02-19T09:39:32.104Z,13.16
2023-02-19T09:44:51.143Z,13.31
2023-02-19T09:50:10.387Z,13.39
2023-02-19T09:55:29.843Z,13.36
2023-02-19T10:00:48.753Z,13.28
2023-02-19T10:06:11.229Z,13.26
2023-02-19T10:16:47.224Z,13.21
2023-02-19T10:27:26.686Z,13.15
2023-02-19T10:32:45.646Z,13.19
2023-02-19T10:43:22.836Z,13.18
2023-02-19T10:48:42.105Z,13.36
2023-02-19T10:54:01.672Z,13.43
2023-02-19T10:59:20.543Z,13.66
2023-02-19T11:10:00.022Z,13.76
2023-02-19T11:15:19.474Z,14.24
2023-02-19T11:25:57.470Z,14.35
2023-02-19T11:31:16.686Z,14.34
2023-02-19T11:36:36.321Z,14.06
2023-02-19T11:41:55.776Z,13.98
2023-02-19T11:47:15.345Z,13.59
2023-02-19T11:52:34.145Z,13.56
2023-02-19T11:57:53.420Z,13.42
2023-02-19T12:08:31.627Z,13.43
2023-02-19T12:13:51.001Z,13.46
2023-02-19T12:19:09.764Z,13.4
2023-02-19T12:24:28.653Z,13.36
2023-02-19T12:29:48.110Z,13.28
2023-02-19T12:35:06.661Z,13.29
2023-02-19T12:40:26.501Z,13.47
2023-02-19T12:51:04.944Z,13.31
2023-02-19T12:56:23.732Z,13.18
2023-02-19T13:01:42.605Z,13.13
2023-02-19T13:07:02.246Z,13.1
2023-02-19T13:12:21.092Z,13.11
2023-02-19T13:17:40.484Z,13.11
2023-02-19T13:22:58.977Z,13.18
2023-02-19T13:28:18.107Z,13.25
2023-02-19T13:33:36.968Z,13.35
2023-02-19T13:38:56.567Z,13.36
2023-02-19T13:44:16.022Z,13.3
2023-02-19T13:49:35.725Z,13.21
2023-02-19T13:54:54.837Z,13.1
2023-02-19T14:00:13.968Z,13.05
2023-02-19T14:05:32.988Z,13.04
2023-02-19T14:10:51.871Z,13.1
2023-02-19T14:16:11.187Z,13.22
2023-02-19T14:21:30.101Z,13.26
2023-02-19T14:26:49.841Z,13.44
2023-02-19T14:32:08.970Z,13.63
2023-02-19T14:37:27.903Z,13.63
2023-02-19T14:42:47.595Z,13.84
2023-02-19T14:48:07.009Z,14.36
2023-02-19T14:53:26.628Z,14.36
2023-02-19T14:58:45.921Z,13.59
2023-02-19T15:04:05.730Z,13.5
2023-02-19T15:14:43.594Z,13.4
2023-02-19T15:20:03.251Z,13.34
2023-02-19T15:25:22.056Z,13.24
2023-02-19T15:30:41.142Z,13.12
2023-02-19T15:36:00.845Z,13.08
2023-02-19T15:41:19.894Z,13.07
2023-02-19T15:46:38.813Z,13.06
2023-02-19T15:51:58.284Z,13.04
2023-02-19T15:57:17.631Z,13.04
2023-02-19T16:02:36.630Z,13.01
2023-02-19T16:13:15.312Z,12.97
2023-02-19T16:18:34.203Z,12.95
2023-02-19T16:23:53.732Z,12.94
2023-02-19T16:29:13.261Z,12.93
2023-02-19T16:34:32.387Z,12.92
2023-02-19T16:39:51.628Z,12.92
2023-02-19T16:45:10.708Z,12.92
2023-02-19T16:55:49.601Z,12.91
2023-02-19T17:01:08.432Z,12.91
2023-02-19T17:06:27.941Z,12.91
2023-02-19T17:11:47.061Z,12.91
2023-02-19T17:17:06.353Z,12.9
2023-02-19T17:22:25.915Z,12.9
2023-02-19T17:27:45.642Z,12.89
2023-02-19T17:33:05.015Z,12.89
2023-02-19T17:38:24.342Z,12.89
2023-02-19T17:43:43.246Z,12.88
2023-02-19T17:49:02.701Z,12.88
2023-02-19T17:54:21.763Z,12.88
2023-02-19T17:59:40.544Z,12.88
2023-02-19T18:04:59.341Z,12.87
2023-02-19T18:10:19.502Z,12.87
2023-02-19T18:15:38.261Z,12.86
2023-02-19T18:20:57.590Z,12.86
2023-02-19T18:26:16.659Z,12.86
2023-02-19T18:31:35.763Z,12.86
2023-02-19T18:36:54.659Z,12.85
2023-02-19T18:42:13.574Z,12.86
2023-02-19T18:47:33.383Z,12.85
2023-02-19T18:52:52.667Z,12.85
2023-02-19T18:58:12.818Z,12.84
2023-02-19T19:03:31.253Z,12.84
2023-02-19T19:08:50.692Z,12.83
2023-02-19T19:14:10.203Z,12.84
2023-02-19T19:19:30.648Z,12.83
2023-02-19T19:24:49.099Z,12.83
2023-02-19T19:30:08.514Z,12.82
2023-02-19T19:35:27.601Z,12.82
2023-02-19T19:40:46.988Z,12.82
2023-02-19T19:46:05.856Z,12.82
2023-02-19T19:51:24.922Z,12.81
2023-02-19T19:56:44.596Z,12.81
2023-02-19T20:02:03.897Z,12.81
2023-02-19T20:07:22.629Z,12.8
2023-02-19T20:12:41.495Z,12.8
2023-02-19T20:18:00.640Z,12.8
2023-02-19T20:23:19.976Z,12.8
2023-02-19T20:28:39.624Z,12.79
2023-02-19T20:33:59.283Z,12.79
2023-02-19T20:39:18.758Z,12.79
2023-02-19T20:44:37.962Z,12.79
2023-02-19T20:49:57.104Z,12.79
2023-02-19T20:55:16.588Z,12.78
2023-02-19T21:00:35.911Z,12.78
2023-02-19T21:11:39.428Z,12.77
2023-02-19T21:16:58.325Z,12.77
2023-02-19T21:22:17.728Z,12.76
2023-02-19T21:27:37.017Z,12.77
2023-02-19T21:32:55.889Z,12.77
2023-02-19T21:38:15.380Z,12.76
2023-02-19T21:43:34.210Z,12.76
2023-02-19T21:48:53.911Z,12.76
2023-02-19T21:54:13.080Z,12.75
2023-02-19T21:59:31.859Z,12.76
2023-02-19T22:10:10.287Z,12.75
2023-02-19T22:20:49.828Z,12.75
2023-02-19T22:26:09.488Z,12.74
2023-02-19T22:31:28.529Z,12.75
2023-02-19T22:36:47.866Z,12.74
2023-02-19T22:42:06.756Z,12.73
2023-02-19T22:47:26.030Z,12.73
2023-02-19T22:52:45.203Z,12.73
2023-02-19T22:58:04.998Z,12.73
2023-02-19T23:03:23.099Z,12.73
2023-02-19T23:08:42.373Z,12.73
2023-02-19T23:14:01.174Z,12.73
2023-02-19T23:19:20.497Z,12.73
2023-02-19T23:24:39.659Z,12.73
2023-02-19T23:29:58.833Z,12.72
2023-02-19T23:35:18.593Z,12.72
2023-02-19T23:40:37.503Z,12.72
2023-02-19T23:45:56.205Z,12.72
2023-02-19T23:51:15.795Z,12.72
2023-02-19T23:56:35.288Z,12.72
